createdAt,value
2018-07-01T00:00:41.598Z,16.11
2018-07-01T00:03:09.118Z,16.07
2018-07-01T00:05:36.818Z,16.08
2018-07-01T00:08:04.421Z,16.05
2018-07-01T00:10:31.998Z,16.00
2018-07-01T00:12:59.665Z,15.95
2018-07-01T00:15:27.254Z,15.91
2018-07-01T00:17:54.887Z,15.87
2018-07-01T00:20:22.549Z,15.84
2018-07-01T00:22:50.142Z,15.76
2018-07-01T00:25:17.827Z,15.69
2018-07-01T00:27:45.360Z,15.64
2018-07-01T00:30:13.087Z,15.63
2018-07-01T00:32:40.788Z,15.63
2018-07-01T00:35:08.378Z,15.60
2018-07-01T00:37:36.121Z,15.61
2018-07-01T00:40:04.046Z,15.60
2018-07-01T00:42:31.617Z,15.54
2018-07-01T00:44:59.385Z,15.49
2018-07-01T00:47:26.914Z,15.51
2018-07-01T00:49:54.607Z,15.48
2018-07-01T00:52:22.209Z,15.48
2018-07-01T00:54:49.758Z,15.48
2018-07-01T00:57:17.447Z,15.49
2018-07-01T00:59:44.974Z,15.52
2018-07-01T01:02:12.674Z,15.45
2018-07-01T01:04:40.189Z,15.46
2018-07-01T01:07:07.810Z,15.46
2018-07-01T01:09:35.569Z,15.50
2018-07-01T01:12:03.129Z,15.53
2018-07-01T01:14:30.823Z,15.53
2018-07-01T01:16:58.443Z,15.54
2018-07-01T01:19:25.981Z,15.56
2018-07-01T01:21:53.686Z,15.58
2018-07-01T01:24:22.150Z,15.59
2018-07-01T01:26:49.675Z,15.58
2018-07-01T01:29:17.440Z,15.60
2018-07-01T01:31:44.994Z,15.59
2018-07-01T01:34:12.985Z,15.59
2018-07-01T01:36:41.844Z,15.62
2018-07-01T01:39:19.953Z,15.60
2018-07-01T01:41:51.403Z,15.58
2018-07-01T01:44:23.113Z,15.54
2018-07-01T01:46:58.321Z,15.52
2018-07-01T01:50:33.954Z,15.52
2018-07-01T01:55:14.138Z,15.47
2018-07-01T01:57:48.154Z,15.40
2018-07-01T02:00:20.707Z,15.40
2018-07-01T02:02:55.014Z,15.36
2018-07-01T02:05:28.444Z,15.29
2018-07-01T02:08:03.175Z,15.25
2018-07-01T02:10:30.963Z,15.19
2018-07-01T02:12:58.769Z,15.11
2018-07-01T02:15:30.692Z,15.06
2018-07-01T02:17:58.342Z,15.06
2018-07-01T02:20:29.113Z,15.05
2018-07-01T02:23:01.393Z,15.04
2018-07-01T02:25:30.885Z,15.05
2018-07-01T02:27:58.538Z,15.05
2018-07-01T02:30:26.122Z,15.02
2018-07-01T02:32:53.875Z,14.96
2018-07-01T02:35:21.485Z,14.90
2018-07-01T02:37:49.088Z,14.89
2018-07-01T02:40:16.705Z,14.90
2018-07-01T02:42:44.266Z,14.77
2018-07-01T02:45:12.064Z,14.76
2018-07-01T02:47:39.656Z,14.68
2018-07-01T02:50:07.342Z,14.61
2018-07-01T02:52:35.315Z,14.55
2018-07-01T02:55:02.955Z,14.55
2018-07-01T02:57:30.624Z,14.51
2018-07-01T02:59:58.234Z,14.47
2018-07-01T03:02:25.817Z,14.48
2018-07-01T03:04:53.608Z,14.44
2018-07-01T03:07:21.153Z,14.42
2018-07-01T03:09:48.919Z,14.39
2018-07-01T03:12:16.473Z,14.37
2018-07-01T03:14:44.039Z,14.36
2018-07-01T03:17:11.723Z,14.31
2018-07-01T03:19:39.258Z,14.29
2018-07-01T03:22:07.014Z,14.24
2018-07-01T03:24:34.556Z,14.17
2018-07-01T03:27:02.124Z,14.16
2018-07-01T03:29:29.803Z,14.15
2018-07-01T03:31:57.490Z,14.10
2018-07-01T03:34:25.138Z,14.04
2018-07-01T03:36:52.753Z,13.98
2018-07-01T03:39:20.306Z,13.94
2018-07-01T03:41:47.961Z,13.98
2018-07-01T03:44:15.497Z,13.90
2018-07-01T03:46:43.117Z,13.97
2018-07-01T03:49:10.684Z,13.95
2018-07-01T03:51:38.237Z,13.95
2018-07-01T03:54:06.005Z,13.97
2018-07-01T03:56:33.606Z,13.96
2018-07-01T03:59:01.282Z,13.96
2018-07-01T04:01:28.943Z,13.95
2018-07-01T04:03:56.515Z,13.96
2018-07-01T04:06:24.447Z,14.05
2018-07-01T04:08:52.025Z,14.07
2018-07-01T04:11:19.599Z,14.13
2018-07-01T04:13:47.801Z,14.18
2018-07-01T04:16:15.373Z,14.21
2018-07-01T04:18:43.354Z,14.22
2018-07-01T04:21:10.990Z,14.26
2018-07-01T04:23:38.513Z,14.24
2018-07-01T04:26:06.209Z,14.31
2018-07-01T04:28:33.713Z,14.38
2018-07-01T04:31:01.439Z,14.42
2018-07-01T04:33:29.078Z,14.44
2018-07-01T04:35:56.610Z,14.46
2018-07-01T04:38:24.453Z,14.53
2018-07-01T04:40:51.958Z,14.54
2018-07-01T04:43:19.566Z,14.55
2018-07-01T04:45:47.247Z,14.58
2018-07-01T04:48:14.791Z,14.65
2018-07-01T04:50:42.499Z,14.70
2018-07-01T04:53:10.014Z,14.69
2018-07-01T04:55:37.603Z,14.69
2018-07-01T04:58:05.815Z,14.79
2018-07-01T05:00:33.330Z,14.83
2018-07-01T05:03:01.046Z,14.93
2018-07-01T05:05:28.696Z,15.03
2018-07-01T05:07:56.241Z,15.10
2018-07-01T05:10:23.910Z,15.13
2018-07-01T05:12:51.429Z,15.17
2018-07-01T05:15:19.194Z,15.22
2018-07-01T05:17:46.839Z,15.25
2018-07-01T05:20:14.423Z,15.21
2018-07-01T05:22:42.083Z,15.19
2018-07-01T05:25:09.622Z,15.33
2018-07-01T05:27:37.253Z,15.39
2018-07-01T05:30:05.049Z,15.54
2018-07-01T05:32:32.693Z,15.69
2018-07-01T05:35:00.374Z,15.68
2018-07-01T05:37:27.997Z,15.76
2018-07-01T05:39:55.590Z,15.84
2018-07-01T05:42:23.303Z,15.95
2018-07-01T05:44:50.867Z,15.99
2018-07-01T05:47:18.679Z,16.01
2018-07-01T05:49:46.265Z,16.14
2018-07-01T05:52:15.004Z,16.32
2018-07-01T05:54:42.685Z,16.50
2018-07-01T05:57:10.271Z,16.58
2018-07-01T05:59:37.765Z,16.62
2018-07-01T06:02:05.489Z,16.63
2018-07-01T06:04:33.114Z,16.73
2018-07-01T06:07:00.952Z,16.77
2018-07-01T06:09:28.640Z,16.94
2018-07-01T06:11:56.217Z,16.97
2018-07-01T06:14:24.164Z,17.01
2018-07-01T06:16:51.890Z,17.21
2018-07-01T06:19:19.494Z,17.39
2018-07-01T06:21:47.469Z,17.51
2018-07-01T06:24:15.051Z,17.67
2018-07-01T06:26:42.927Z,17.76
2018-07-01T06:29:10.718Z,17.94
2018-07-01T06:31:38.292Z,18.13
2018-07-01T06:34:06.250Z,18.22
2018-07-01T06:36:33.936Z,18.34
2018-07-01T06:39:01.574Z,18.53
2018-07-01T06:41:29.550Z,18.76
2018-07-01T06:43:57.136Z,18.88
2018-07-01T06:46:24.975Z,19.02
2018-07-01T06:48:52.741Z,19.12
2018-07-01T06:51:20.300Z,19.15
2018-07-01T06:53:48.250Z,19.33
2018-07-01T06:56:15.901Z,19.62
2018-07-01T06:58:43.636Z,19.80
2018-07-01T07:01:11.519Z,20.08
2018-07-01T07:03:39.022Z,20.12
2018-07-01T07:06:07.566Z,20.17
2018-07-01T07:08:36.328Z,20.38
2018-07-01T07:11:03.952Z,20.41
2018-07-01T07:13:31.582Z,20.67
2018-07-01T07:15:59.484Z,20.91
2018-07-01T07:18:27.066Z,21.15
2018-07-01T07:20:54.951Z,21.12
2018-07-01T07:23:22.690Z,21.30
2018-07-01T07:25:50.222Z,21.38
2018-07-01T07:28:18.135Z,21.47
2018-07-01T07:30:45.692Z,21.62
2018-07-01T07:33:13.398Z,21.81
2018-07-01T07:35:41.243Z,21.96
2018-07-01T07:38:08.849Z,22.13
2018-07-01T07:40:36.701Z,22.24
2018-07-01T07:43:04.510Z,22.21
2018-07-01T07:45:32.113Z,22.36
2018-07-01T07:48:00.099Z,22.56
2018-07-01T07:50:27.670Z,22.73
2018-07-01T07:52:55.399Z,22.95
2018-07-01T07:55:23.322Z,23.15
2018-07-01T07:57:51.042Z,23.15
2018-07-01T08:00:18.847Z,23.36
2018-07-01T08:02:46.550Z,23.56
2018-07-01T08:05:14.149Z,23.73
2018-07-01T08:07:42.071Z,23.89
2018-07-01T08:10:09.695Z,23.89
2018-07-01T08:12:37.445Z,23.90
2018-07-01T08:15:05.586Z,23.97
2018-07-01T08:17:33.262Z,24.12
2018-07-01T08:20:01.010Z,24.19
2018-07-01T08:22:28.857Z,24.38
2018-07-01T08:24:56.400Z,24.57
2018-07-01T08:27:24.270Z,24.80
2018-07-01T08:29:51.841Z,24.90
2018-07-01T08:32:19.555Z,25.06
2018-07-01T08:34:47.492Z,25.25
2018-07-01T08:37:15.050Z,25.41
2018-07-01T08:39:42.880Z,25.58
2018-07-01T08:42:18.911Z,25.32
2018-07-01T08:44:46.618Z,25.71
2018-07-01T08:47:14.195Z,26.06
2018-07-01T08:49:42.358Z,26.26
2018-07-01T08:52:10.020Z,26.52
2018-07-01T08:54:37.734Z,26.81
2018-07-01T08:57:06.091Z,26.97
2018-07-01T08:59:34.115Z,26.90
2018-07-01T09:02:01.771Z,27.20
2018-07-01T09:04:29.758Z,27.21
2018-07-01T09:06:57.311Z,27.41
2018-07-01T09:09:25.069Z,27.69
2018-07-01T09:11:53.665Z,27.45
2018-07-01T09:14:21.303Z,27.68
2018-07-01T09:16:49.235Z,28.05
2018-07-01T09:19:17.009Z,28.39
2018-07-01T09:21:44.574Z,28.61
2018-07-01T09:24:12.960Z,28.40
2018-07-01T09:26:40.610Z,28.19
2018-07-01T09:29:08.247Z,28.54
2018-07-01T09:31:36.304Z,28.90
2018-07-01T09:34:03.992Z,29.12
2018-07-01T09:36:31.669Z,29.21
2018-07-01T09:38:59.459Z,29.43
2018-07-01T09:41:27.249Z,29.65
2018-07-01T09:43:55.511Z,29.87
2018-07-01T09:46:23.289Z,30.19
2018-07-01T09:48:50.842Z,28.80
2018-07-01T09:51:18.739Z,28.00
2018-07-01T09:53:46.393Z,28.74
2018-07-01T09:56:14.024Z,29.37
2018-07-01T09:58:42.034Z,29.30
2018-07-01T10:01:09.656Z,29.59
2018-07-01T10:03:37.342Z,29.81
2018-07-01T10:06:05.307Z,29.78
2018-07-01T10:08:32.870Z,30.15
2018-07-01T10:11:00.696Z,30.37
2018-07-01T10:13:28.319Z,30.59
2018-07-01T10:15:55.930Z,30.88
2018-07-01T10:18:23.839Z,31.07
2018-07-01T10:20:51.362Z,31.14
2018-07-01T10:23:19.153Z,31.16
2018-07-01T10:25:47.035Z,31.15
2018-07-01T10:28:14.586Z,31.18
2018-07-01T10:30:42.443Z,31.11
2018-07-01T10:33:10.033Z,31.00
2018-07-01T10:35:37.749Z,31.15
2018-07-01T10:38:05.774Z,31.43
2018-07-01T10:40:33.326Z,31.92
2018-07-01T10:43:01.115Z,32.20
2018-07-01T10:45:28.887Z,32.17
2018-07-01T10:47:56.559Z,32.16
2018-07-01T10:50:24.478Z,32.62
2018-07-01T10:52:52.048Z,32.84
2018-07-01T10:55:19.732Z,33.05
2018-07-01T10:57:47.653Z,33.33
2018-07-01T11:00:15.243Z,33.46
2018-07-01T11:02:43.075Z,33.55
2018-07-01T11:05:10.844Z,33.50
2018-07-01T11:07:38.439Z,32.78
2018-07-01T11:10:06.376Z,32.20
2018-07-01T11:12:33.979Z,32.74
2018-07-01T11:15:01.782Z,33.62
2018-07-01T11:17:29.801Z,34.17
2018-07-01T11:19:57.374Z,34.67
2018-07-01T11:22:25.146Z,34.93
2018-07-01T11:24:52.962Z,35.16
2018-07-01T11:27:20.605Z,34.20
2018-07-01T11:29:48.618Z,32.22
2018-07-01T11:32:16.265Z,31.44
2018-07-01T11:34:43.883Z,32.93
2018-07-01T11:37:11.890Z,34.05
2018-07-01T11:39:39.465Z,34.52
2018-07-01T11:42:07.268Z,34.73
2018-07-01T11:44:35.116Z,35.08
2018-07-01T11:47:02.783Z,33.83
2018-07-01T11:49:30.819Z,32.09
2018-07-01T11:51:58.447Z,30.87
2018-07-01T11:54:26.259Z,31.36
2018-07-01T11:56:54.166Z,30.34
2018-07-01T11:59:21.711Z,29.57
2018-07-01T12:01:49.550Z,28.98
2018-07-01T12:04:23.822Z,29.75
2018-07-01T12:06:51.382Z,32.23
2018-07-01T12:09:19.190Z,33.46
2018-07-01T12:11:47.020Z,34.20
2018-07-01T12:14:14.583Z,34.75
2018-07-01T12:16:42.558Z,34.92
2018-07-01T12:19:10.217Z,32.37
2018-07-01T12:21:37.855Z,31.07
2018-07-01T12:24:05.906Z,31.16
2018-07-01T12:26:33.470Z,31.95
2018-07-01T12:29:01.289Z,30.34
2018-07-01T12:31:29.204Z,29.27
2018-07-01T12:33:56.767Z,28.73
2018-07-01T12:36:24.707Z,28.37
2018-07-01T12:38:52.355Z,28.38
2018-07-01T12:41:20.158Z,28.42
2018-07-01T12:43:48.175Z,28.64
2018-07-01T12:46:15.750Z,28.33
2018-07-01T12:48:43.468Z,28.07
2018-07-01T12:51:11.243Z,27.64
2018-07-01T12:53:38.793Z,27.21
2018-07-01T12:56:06.764Z,27.08
2018-07-01T12:58:34.372Z,26.94
2018-07-01T13:01:01.977Z,26.87
2018-07-01T13:03:29.937Z,27.04
2018-07-01T13:05:57.619Z,27.80
2018-07-01T13:08:25.469Z,28.63
2018-07-01T13:10:54.558Z,28.57
2018-07-01T13:13:22.099Z,28.80
2018-07-01T13:15:50.023Z,29.21
2018-07-01T13:18:18.054Z,29.94
2018-07-01T13:20:45.630Z,31.94
2018-07-01T13:23:13.417Z,31.82
2018-07-01T13:25:41.233Z,33.85
2018-07-01T13:28:08.809Z,35.10
2018-07-01T13:30:36.726Z,33.74
2018-07-01T13:33:04.483Z,34.16
2018-07-01T13:35:32.103Z,35.00
2018-07-01T13:37:59.971Z,33.85
2018-07-01T13:40:27.522Z,32.56
2018-07-01T13:42:55.410Z,31.65
2018-07-01T13:45:23.138Z,30.72
2018-07-01T13:47:50.746Z,30.05
2018-07-01T13:50:18.711Z,29.11
2018-07-01T13:52:46.380Z,31.42
2018-07-01T13:55:14.016Z,33.69
2018-07-01T13:57:41.946Z,35.10
2018-07-01T14:00:09.647Z,36.16
2018-07-01T14:02:37.447Z,36.19
2018-07-01T14:05:05.354Z,35.31
2018-07-01T14:07:32.950Z,32.58
2018-07-01T14:10:00.963Z,31.05
2018-07-01T14:12:28.692Z,30.08
2018-07-01T14:14:56.254Z,29.52
2018-07-01T14:17:24.233Z,28.95
2018-07-01T14:19:51.860Z,28.55
2018-07-01T14:22:19.587Z,28.24
2018-07-01T14:24:47.423Z,27.95
2018-07-01T14:27:14.975Z,27.70
2018-07-01T14:29:42.911Z,27.51
2018-07-01T14:32:10.577Z,27.38
2018-07-01T14:34:39.704Z,27.23
2018-07-01T14:37:07.522Z,27.12
2018-07-01T14:39:35.304Z,27.00
2018-07-01T14:42:02.899Z,27.57
2018-07-01T14:44:30.785Z,29.17
2018-07-01T14:46:58.396Z,30.88
2018-07-01T14:49:26.109Z,31.77
2018-07-01T14:51:53.995Z,32.16
2018-07-01T14:54:21.540Z,32.23
2018-07-01T14:56:49.346Z,32.07
2018-07-01T14:59:17.054Z,32.00
2018-07-01T15:01:44.647Z,31.99
2018-07-01T15:04:12.515Z,31.91
2018-07-01T15:06:40.071Z,31.65
2018-07-01T15:09:09.063Z,30.82
2018-07-01T15:11:36.971Z,30.63
2018-07-01T15:14:04.965Z,30.43
2018-07-01T15:16:32.637Z,30.18
2018-07-01T15:19:00.675Z,29.65
2018-07-01T15:24:02.367Z,29.09
2018-07-01T15:26:30.290Z,28.73
2018-07-01T15:28:57.801Z,28.22
2018-07-01T15:31:25.554Z,27.84
2018-07-01T15:33:53.412Z,27.57
2018-07-01T15:36:21.031Z,27.29
2018-07-01T15:38:48.950Z,27.04
2018-07-01T15:41:16.600Z,26.92
2018-07-01T15:43:44.135Z,26.78
2018-07-01T15:46:12.002Z,26.44
2018-07-01T15:48:39.570Z,26.29
2018-07-01T15:51:07.567Z,26.07
2018-07-01T15:53:35.484Z,25.80
2018-07-01T15:56:03.267Z,25.53
2018-07-01T15:58:31.119Z,25.43
2018-07-01T16:00:58.882Z,25.20
2018-07-01T16:03:26.418Z,25.18
2018-07-01T16:05:54.299Z,25.15
2018-07-01T16:08:21.866Z,25.09
2018-07-01T16:10:49.606Z,25.00
2018-07-01T16:13:17.471Z,24.90
2018-07-01T16:15:45.042Z,24.84
2018-07-01T16:18:12.917Z,24.71
2018-07-01T16:20:40.571Z,24.66
2018-07-01T16:23:08.162Z,24.51
2018-07-01T16:25:36.818Z,24.30
2018-07-01T16:28:09.862Z,24.16
2018-07-01T16:30:37.615Z,24.13
2018-07-01T16:33:05.612Z,24.09
2018-07-01T16:35:33.154Z,23.96
2018-07-01T16:38:01.019Z,23.95
2018-07-01T16:40:28.696Z,23.99
2018-07-01T16:42:56.278Z,24.03
2018-07-01T16:45:24.166Z,24.05
2018-07-01T16:47:51.683Z,24.12
2018-07-01T16:50:19.506Z,24.12
2018-07-01T16:52:47.318Z,24.08
2018-07-01T16:55:14.870Z,24.27
2018-07-01T16:57:42.687Z,24.23
2018-07-01T17:00:10.353Z,24.18
2018-07-01T17:02:38.045Z,24.19
2018-07-01T17:05:06.096Z,24.08
2018-07-01T17:07:33.614Z,24.03
2018-07-01T17:10:01.413Z,24.08
2018-07-01T17:12:29.248Z,24.11
2018-07-01T17:14:57.040Z,24.09
2018-07-01T17:17:24.948Z,24.05
2018-07-01T17:19:52.482Z,23.99
2018-07-01T17:22:20.064Z,23.84
2018-07-01T17:24:48.061Z,23.74
2018-07-01T17:27:15.707Z,23.58
2018-07-01T17:29:43.488Z,23.51
2018-07-01T17:32:16.645Z,23.45
2018-07-01T17:34:44.486Z,23.38
2018-07-01T17:37:12.575Z,23.25
2018-07-01T17:39:40.176Z,23.20
2018-07-01T17:42:07.858Z,23.16
2018-07-01T17:44:35.816Z,23.07
2018-07-01T17:47:03.406Z,23.00
2018-07-01T17:49:31.216Z,22.94
2018-07-01T17:51:58.943Z,22.81
2018-07-01T17:54:26.506Z,22.74
2018-07-01T17:56:54.461Z,22.72
2018-07-01T17:59:21.978Z,22.74
2018-07-01T18:01:49.682Z,22.73
2018-07-01T18:04:17.531Z,22.74
2018-07-01T18:06:45.107Z,22.58
2018-07-01T18:09:13.034Z,22.50
2018-07-01T18:11:40.625Z,22.45
2018-07-01T18:14:08.098Z,22.32
2018-07-01T18:16:36.036Z,22.22
2018-07-01T18:19:03.601Z,22.17
2018-07-01T18:21:31.901Z,22.11
2018-07-01T18:24:27.534Z,22.13
2018-07-01T18:26:27.453Z,22.09
2018-07-01T18:29:05.471Z,22.04
2018-07-01T18:31:22.983Z,21.92
2018-07-01T18:33:50.711Z,21.86
2018-07-01T18:36:18.302Z,21.79
2018-07-01T18:38:45.976Z,21.73
2018-07-01T18:41:13.595Z,21.64
2018-07-01T18:43:41.207Z,21.57
2018-07-01T18:46:08.882Z,21.50
2018-07-01T18:48:36.413Z,21.44
2018-07-01T18:51:04.135Z,21.36
2018-07-01T18:53:31.736Z,21.30
2018-07-01T18:55:59.263Z,21.26
2018-07-01T18:58:27.001Z,21.22
2018-07-01T19:00:54.527Z,21.13
2018-07-01T19:03:22.171Z,21.07
2018-07-01T19:05:49.820Z,21.00
2018-07-01T19:08:17.409Z,20.96
2018-07-01T19:10:45.143Z,20.88
2018-07-01T19:13:12.713Z,20.79
2018-07-01T19:15:40.322Z,20.69
2018-07-01T19:18:08.078Z,20.60
2018-07-01T19:20:36.102Z,20.47
2018-07-01T19:23:04.055Z,20.39
2018-07-01T19:25:31.883Z,20.31
2018-07-01T19:27:59.747Z,20.24
2018-07-01T19:30:27.522Z,20.15
2018-07-01T19:32:55.347Z,20.08
2018-07-01T19:35:23.114Z,19.95
2018-07-01T19:37:50.862Z,19.88
2018-07-01T19:40:18.643Z,19.79
2018-07-01T19:42:46.375Z,19.74
2018-07-01T19:45:14.060Z,19.67
2018-07-01T19:47:41.777Z,19.61
2018-07-01T19:50:09.607Z,19.54
2018-07-01T19:52:37.472Z,19.50
2018-07-01T19:55:05.337Z,19.40
2018-07-01T19:57:33.046Z,19.31
2018-07-01T20:00:01.012Z,19.21
2018-07-01T20:02:28.709Z,19.15
2018-07-01T20:04:56.400Z,19.10
2018-07-01T20:07:24.118Z,19.01
2018-07-01T20:09:51.816Z,18.94
2018-07-01T20:12:21.931Z,18.87
2018-07-01T20:14:49.768Z,18.83
2018-07-01T20:17:17.486Z,18.79
2018-07-01T20:19:45.181Z,18.72
2018-07-01T20:22:12.842Z,18.68
2018-07-01T20:24:40.542Z,18.64
2018-07-01T20:27:08.306Z,18.56
2018-07-01T20:29:36.751Z,18.51
2018-07-01T20:32:04.737Z,18.46
2018-07-01T20:34:32.557Z,18.42
2018-07-01T20:37:00.653Z,18.36
2018-07-01T20:39:28.523Z,18.30
2018-07-01T20:41:56.325Z,18.23
2018-07-01T20:44:24.134Z,18.19
2018-07-01T20:46:51.713Z,18.14
2018-07-01T20:49:19.569Z,18.11
2018-07-01T20:51:47.337Z,18.08
2018-07-01T20:54:14.964Z,18.06
2018-07-01T20:56:42.747Z,17.98
2018-07-01T20:59:10.573Z,17.96
2018-07-01T21:01:38.553Z,17.91
2018-07-01T21:04:06.455Z,17.88
2018-07-01T21:06:34.402Z,17.80
2018-07-01T21:09:02.386Z,17.75
2018-07-01T21:11:30.198Z,17.69
2018-07-01T21:13:58.057Z,17.67
2018-07-01T21:16:25.905Z,17.65
2018-07-01T21:18:53.745Z,17.57
2018-07-01T21:21:21.454Z,17.51
2018-07-01T21:23:49.184Z,17.49
2018-07-01T21:26:16.849Z,17.47
2018-07-01T21:28:44.606Z,17.39
2018-07-01T21:31:13.210Z,17.36
2018-07-01T21:33:40.935Z,17.31
2018-07-01T21:36:09.495Z,17.27
2018-07-01T21:38:37.168Z,17.26
2018-07-01T21:41:04.866Z,17.26
2018-07-01T21:43:32.683Z,17.21
2018-07-01T21:46:00.544Z,17.17
2018-07-01T21:48:28.510Z,17.16
2018-07-01T21:50:56.476Z,17.15
2018-07-01T21:53:24.383Z,17.13
2018-07-01T21:55:52.512Z,17.03
2018-07-01T21:58:20.480Z,17.02
2018-07-01T22:00:48.558Z,16.96
2018-07-01T22:03:16.158Z,16.93
2018-07-01T22:05:43.756Z,16.96
2018-07-01T22:08:11.529Z,16.93
2018-07-01T22:10:50.236Z,16.92
2018-07-01T22:14:36.342Z,16.91
2018-07-01T22:17:05.249Z,16.78
2018-07-01T22:19:33.214Z,16.72
2018-07-01T22:22:01.148Z,16.64
2018-07-01T22:24:30.086Z,16.60
2018-07-01T22:26:57.855Z,16.60
2018-07-01T22:29:25.398Z,16.55
2018-07-01T22:31:53.189Z,16.52
2018-07-01T22:34:21.228Z,16.50
2018-07-01T22:36:49.162Z,16.39
2018-07-01T22:39:18.089Z,16.44
2018-07-01T22:41:46.355Z,16.39
2018-07-01T22:44:13.930Z,16.37
2018-07-01T22:46:42.542Z,16.32
2018-07-01T22:49:10.269Z,16.30
2018-07-01T22:51:37.866Z,16.25
2018-07-01T22:54:05.627Z,16.19
2018-07-01T22:56:33.871Z,16.15
2018-07-01T22:59:01.449Z,16.12
2018-07-01T23:01:29.367Z,16.07
2018-07-01T23:03:56.931Z,16.00
2018-07-01T23:06:24.814Z,15.95
2018-07-01T23:08:52.522Z,15.91
2018-07-01T23:11:20.061Z,15.87
2018-07-01T23:13:47.814Z,15.83
2018-07-01T23:16:15.517Z,15.75
2018-07-01T23:18:43.142Z,15.71
2018-07-01T23:21:10.918Z,15.69
2018-07-01T23:23:38.482Z,15.64
2018-07-01T23:26:06.392Z,15.55
2018-07-01T23:28:34.237Z,15.53
2018-07-01T23:31:01.800Z,15.51
2018-07-01T23:33:29.529Z,15.47
2018-07-01T23:35:57.109Z,15.40
2018-07-01T23:38:24.681Z,15.37
2018-07-01T23:40:52.437Z,15.33
2018-07-01T23:43:20.073Z,15.30
2018-07-01T23:45:47.810Z,15.27
2018-07-01T23:48:15.504Z,15.28
2018-07-01T23:50:43.115Z,15.21
2018-07-01T23:53:10.825Z,15.12
2018-07-01T23:55:38.422Z,15.13
2018-07-01T23:58:06.072Z,15.06
